Time;durP1;ratioP1;P1;durP2;ratioP2;P2;SDS_P1;SDS_P2;PMS_P1;PMS_P2;Temp;Humidity;BMP_temperature;BMP_pressure;BME280_temperature;BME280_humidity;BME280_pressure;Samples;Min_cycle;Max_cycle;Signal;HPM_P1;HPM_P2
2023/08/03 00:00:40;;;;;;;3.88;0.57;;;;;;;16.51;100.00;98580.78;4933854;29;20503;-83
2023/08/03 00:03:07;;;;;;;1.70;0.63;;;;;;;16.45;100.00;98571.47;4932721;29;20043;-86
2023/08/03 00:05:33;;;;;;;1.33;0.40;;;;;;;16.38;100.00;98568.38;4933656;29;20051;-84
2023/08/03 00:08:00;;;;;;;7.72;0.77;;;;;;;16.31;100.00;98569.75;4939148;29;20131;-84
2023/08/03 00:10:26;;;;;;;2.88;0.57;;;;;;;16.29;100.00;98570.78;4936776;29;20051;-84
2023/08/03 00:12:55;;;;;;;1.92;0.30;;;;;;;16.22;100.00;98573.00;4914268;29;20075;-86
2023/08/03 00:15:22;;;;;;;1.35;0.45;;;;;;;16.16;100.00;98557.56;4934614;29;20039;-92
2023/08/03 00:17:48;;;;;;;2.67;0.82;;;;;;;16.11;100.00;98563.13;4934310;29;20397;-83
2023/08/03 00:20:15;;;;;;;5.07;0.77;;;;;;;16.11;100.00;98560.47;4935437;29;20044;-87
2023/08/03 00:22:46;;;;;;;2.90;0.80;;;;;;;16.12;100.00;98559.53;4932709;29;20040;-85
2023/08/03 00:25:12;;;;;;;0.38;0.20;;;;;;;16.11;100.00;98567.56;4932393;29;20048;-83
2023/08/03 00:27:38;;;;;;;4.00;1.23;;;;;;;16.13;100.00;98560.41;4933120;29;20043;-83
2023/08/03 00:30:06;;;;;;;0.88;0.28;;;;;;;16.19;100.00;98558.22;4929726;29;20043;-83
2023/08/03 00:32:32;;;;;;;1.75;0.47;;;;;;;16.25;100.00;98561.38;4917355;29;20075;-82
2023/08/03 00:34:59;;;;;;;7.30;0.68;;;;;;;16.29;100.00;98560.22;4932136;29;20123;-84
2023/08/03 00:37:25;;;;;;;1.95;0.80;;;;;;;16.29;100.00;98557.59;4921778;29;20062;-85
2023/08/03 00:39:52;;;;;;;1.58;0.75;;;;;;;16.19;100.00;98552.06;4928001;29;20119;-96
2023/08/03 00:42:20;;;;;;;6.25;0.47;;;;;;;16.08;100.00;98550.13;4899034;29;20058;-84
2023/08/03 00:44:46;;;;;;;2.75;0.50;;;;;;;15.98;100.00;98551.69;4883638;29;20055;-83
2023/08/03 00:47:13;;;;;;;2.28;0.55;;;;;;;15.82;100.00;98538.66;4907222;29;20047;-85
2023/08/03 00:49:40;;;;;;;2.65;1.10;;;;;;;15.74;100.00;98536.47;4909577;29;20080;-83
2023/08/03 00:52:07;;;;;;;1.30;0.60;;;;;;;15.68;100.00;98544.75;4914683;29;20042;-84
2023/08/03 00:54:33;;;;;;;4.95;1.13;;;;;;;15.61;100.00;98536.41;4899117;29;20139;-83
2023/08/03 00:57:02;;;;;;;1.70;0.60;;;;;;;15.59;100.00;98529.53;4915810;29;20123;-82
2023/08/03 00:59:29;;;;;;;5.47;0.80;;;;;;;15.59;100.00;98529.53;4917806;29;20071;-86
2023/08/03 01:01:55;;;;;;;4.00;1.65;;;;;;;15.62;100.00;98526.69;4907425;29;20062;-83
2023/08/03 01:04:22;;;;;;;2.05;0.68;;;;;;;15.67;100.00;98528.09;4911439;29;20095;-84
2023/08/03 01:07:04;;;;;;;3.33;0.80;;;;;;;15.74;100.00;98517.16;4913142;29;20052;-86
2023/08/03 01:09:30;;;;;;;1.38;0.50;;;;;;;15.76;100.00;98521.41;4906245;29;20059;-84
2023/08/03 01:11:57;;;;;;;1.80;0.50;;;;;;;15.75;100.00;98510.91;4896521;29;20127;-87
2023/08/03 01:14:24;;;;;;;3.33;1.10;;;;;;;15.75;100.00;98510.91;4900480;29;20049;-83
2023/08/03 01:16:51;;;;;;;1.10;0.50;;;;;;;15.69;100.00;98510.38;4898684;29;20048;-83
2023/08/03 01:19:18;;;;;;;2.40;0.73;;;;;;;15.68;100.00;98505.19;4909696;29;20047;-82
2023/08/03 01:21:47;;;;;;;2.95;0.77;;;;;;;15.66;100.00;98500.03;4904880;29;20048;-84
2023/08/03 01:24:14;;;;;;;3.83;0.60;;;;;;;15.65;100.00;98489.59;4921500;29;20606;-82
2023/08/03 01:26:42;;;;;;;2.05;0.82;;;;;;;15.68;100.00;98495.50;4910432;29;20048;-84
2023/08/03 01:29:08;;;;;;;1.48;0.40;;;;;;;15.67;100.00;98490.31;4903780;29;20063;-85
2023/08/03 01:31:35;;;;;;;7.47;1.58;;;;;;;15.67;100.00;98495.59;4908691;29;20039;-86
2023/08/03 01:34:02;;;;;;;1.58;0.47;;;;;;;15.77;100.00;98491.41;4898566;29;20045;-83
2023/08/03 01:36:29;;;;;;;1.73;0.63;;;;;;;15.84;100.00;98500.66;4897294;29;20411;-82
2023/08/03 01:39:07;;;;;;;3.00;0.40;;;;;;;15.88;100.00;98507.44;4917650;28;20488;-83
2023/08/03 01:41:41;;;;;;;2.95;0.52;;;;;;;15.95;100.00;98510.50;4933708;29;20099;-82
2023/08/03 01:44:30;;;;;;;2.22;0.60;;;;;;;16.03;100.00;98499.44;4915746;28;20035;-83
2023/08/03 01:46:59;;;;;;;3.00;0.60;;;;;;;16.07;100.00;98494.81;4937393;28;20058;-88
2023/08/03 01:49:29;;;;;;;1.92;0.52;;;;;;;16.08;100.00;98496.53;4918975;29;20051;-85
2023/08/03 01:51:56;;;;;;;3.50;0.77;;;;;;;16.10;100.00;98487.56;4935642;29;20067;-84
2023/08/03 01:54:23;;;;;;;6.65;0.82;;;;;;;16.11;100.00;98485.75;4934821;29;20055;-82
2023/08/03 01:56:49;;;;;;;1.83;0.57;;;;;;;16.10;100.00;98490.19;4934974;29;20047;-82
2023/08/03 01:59:16;;;;;;;3.28;0.85;;;;;;;16.08;100.00;98476.25;4937520;28;20043;-85
2023/08/03 02:01:43;;;;;;;2.42;0.65;;;;;;;16.08;100.00;98468.31;4935309;28;20078;-85
2023/08/03 02:04:09;;;;;;;3.38;0.73;;;;;;;16.10;100.00;98476.13;4924334;28;20075;-87
2023/08/03 02:06:36;;;;;;;4.60;0.52;;;;;;;16.13;100.00;98470.66;4937858;29;20047;-83
2023/08/03 02:09:04;;;;;;;4.35;1.85;;;;;;;16.15;100.00;98466.13;4939938;28;20491;-87
2023/08/03 02:11:31;;;;;;;8.55;0.60;;;;;;;16.11;100.00;98462.81;4928739;29;20047;-82
2023/08/03 02:13:58;;;;;;;2.85;0.82;;;;;;;16.10;100.00;98455.03;4936101;28;20106;-83
2023/08/03 02:16:24;;;;;;;3.05;0.82;;;;;;;16.08;100.00;98449.84;4933741;29;20059;-85
2023/08/03 02:18:51;;;;;;;5.43;1.02;;;;;;;16.07;100.00;98450.78;4929406;28;20395;-84
2023/08/03 02:21:17;;;;;;;3.47;0.70;;;;;;;16.09;100.00;98446.25;4947929;28;20043;-88
2023/08/03 02:23:44;;;;;;;4.35;1.20;;;;;;;16.16;100.00;98439.59;4950634;28;20045;-82
2023/08/03 02:26:10;;;;;;;2.90;0.63;;;;;;;16.24;100.00;98447.00;4921463;28;20128;-83
2023/08/03 02:28:37;;;;;;;2.00;0.50;;;;;;;16.30;100.00;98443.97;4931924;29;20061;-82
2023/08/03 02:31:03;;;;;;;1.88;0.20;;;;;;;16.38;100.00;98452.19;4928477;28;20336;-85
2023/08/03 02:33:30;;;;;;;2.50;0.57;;;;;;;16.42;100.00;98438.81;4933699;29;20057;-83
2023/08/03 02:35:56;;;;;;;1.00;0.20;;;;;;;16.41;100.00;98442.38;4932336;28;20039;-91
2023/08/03 02:38:23;;;;;;;4.53;0.57;;;;;;;16.40;100.00;98443.34;4946242;28;20499;-84
2023/08/03 02:40:49;;;;;;;3.92;0.52;;;;;;;16.38;100.00;98448.72;4930114;29;20143;-83
2023/08/03 02:43:18;;;;;;;1.73;0.50;;;;;;;16.34;100.00;98434.03;4946738;28;20040;-82
2023/08/03 02:45:44;;;;;;;2.38;0.40;;;;;;;16.35;100.00;98436.56;4938658;29;20048;-84
2023/08/03 02:48:11;;;;;;;0.82;0.30;;;;;;;16.37;100.00;98445.25;4932736;28;20635;-82
2023/08/03 02:50:37;;;;;;;1.65;0.63;;;;;;;16.37;100.00;98441.75;4933833;28;20051;-86
2023/08/03 02:53:04;;;;;;;0.95;0.30;;;;;;;16.43;100.00;98433.41;4928248;28;20124;-87
2023/08/03 02:55:30;;;;;;;1.98;0.40;;;;;;;16.44;100.00;98444.81;4929125;28;20126;-82
2023/08/03 02:58:00;;;;;;;1.75;0.38;;;;;;;16.41;100.00;98445.03;4928245;28;20071;-83
2023/08/03 03:00:26;;;;;;;0.35;0.20;;;;;;;16.33;100.00;98433.19;4932990;29;20121;-82
2023/08/03 03:02:53;;;;;;;2.78;1.00;;;;;;;16.24;100.00;98443.53;4949808;28;20075;-82
2023/08/03 03:05:19;;;;;;;2.65;0.50;;;;;;;16.17;100.00;98443.13;4938355;28;20163;-90
2023/08/03 03:07:46;;;;;;;4.10;0.80;;;;;;;16.11;100.00;98443.50;4934976;28;20043;-82
2023/08/03 03:10:13;;;;;;;2.42;0.50;;;;;;;16.02;100.00;98435.28;4939528;28;20372;-82
2023/08/03 03:12:40;;;;;;;2.05;0.47;;;;;;;15.87;100.00;98444.22;4934754;28;20071;-88
2023/08/03 03:15:08;;;;;;;4.38;0.70;;;;;;;15.61;100.00;98440.63;4948645;28;20039;-82
2023/08/03 03:17:35;;;;;;;1.85;0.57;;;;;;;15.48;100.00;98435.31;4930940;29;20051;-84
2023/08/03 03:20:03;;;;;;;1.75;0.40;;;;;;;15.36;100.00;98439.56;4939253;28;20062;-82
2023/08/03 03:22:30;;;;;;;2.47;0.90;;;;;;;15.26;100.00;98441.94;4952291;29;20051;-82
2023/08/03 03:24:56;;;;;;;2.10;0.60;;;;;;;15.20;100.00;98444.97;4946130;29;20058;-82
2023/08/03 03:27:23;;;;;;;3.03;1.00;;;;;;;15.10;100.00;98447.34;4939975;29;20119;-82
2023/08/03 03:29:50;;;;;;;2.00;0.47;;;;;;;15.02;100.00;98436.47;4947993;29;20075;-82
2023/08/03 03:32:16;;;;;;;12.20;1.33;;;;;;;14.97;100.00;98435.91;4929592;29;20047;-84
2023/08/03 03:34:43;;;;;;;4.80;0.82;;;;;;;14.92;100.00;98419.53;4945873;29;20047;-83
2023/08/03 03:37:10;;;;;;;1.65;0.63;;;;;;;14.88;100.00;98432.03;4931776;29;20051;-82
2023/08/03 03:39:36;;;;;;;3.25;0.73;;;;;;;14.88;100.00;98424.13;4927675;29;20150;-88
2023/08/03 03:42:03;;;;;;;4.50;1.40;;;;;;;14.88;100.00;98435.50;4942952;29;20170;-83
2023/08/03 03:44:30;;;;;;;4.30;0.60;;;;;;;14.81;100.00;98433.34;4927648;29;20062;-83
2023/08/03 03:46:57;;;;;;;3.25;0.40;;;;;;;14.81;100.00;98435.97;4945627;29;20047;-82
2023/08/03 03:49:24;;;;;;;2.10;0.45;;;;;;;14.84;100.00;98438.44;4923263;28;20081;-82
2023/08/03 03:51:52;;;;;;;2.90;1.05;;;;;;;14.86;100.00;98440.03;4935915;29;20055;-83
2023/08/03 03:54:18;;;;;;;2.00;0.60;;;;;;;14.90;100.00;98443.34;4942783;28;20608;-82
2023/08/03 03:56:45;;;;;;;1.23;0.30;;;;;;;14.93;100.00;98445.78;4934943;29;20503;-87
2023/08/03 03:59:14;;;;;;;1.13;0.40;;;;;;;14.95;100.00;98453.56;4920826;28;20056;-86
2023/08/03 04:01:41;;;;;;;3.03;0.63;;;;;;;14.96;100.00;98444.72;4949122;28;20070;-87
2023/08/03 04:04:08;;;;;;;4.13;0.75;;;;;;;14.97;100.00;98451.69;4920307;28;20047;-83
2023/08/03 04:06:34;;;;;;;2.70;0.80;;;;;;;15.04;100.00;98453.00;4938102;29;20554;-82
2023/08/03 04:09:01;;;;;;;0.85;0.55;;;;;;;15.05;100.00;98455.53;4937262;28;20483;-82
2023/08/03 04:11:28;;;;;;;2.88;0.85;;;;;;;15.13;100.00;98449.78;4942834;29;20073;-84
2023/08/03 04:13:54;;;;;;;2.33;0.45;;;;;;;15.19;100.00;98457.31;4932456;28;20070;-87
2023/08/03 04:16:21;;;;;;;2.17;0.82;;;;;;;15.24;100.00;98462.28;4948808;28;20047;-83
2023/08/03 04:18:49;;;;;;;0.98;0.30;;;;;;;15.22;100.00;98462.38;4935812;28;20043;-83
2023/08/03 04:21:16;;;;;;;1.67;0.50;;;;;;;15.30;100.00;98467.16;4931593;28;20039;-83
2023/08/03 04:23:42;;;;;;;1.58;0.77;;;;;;;15.36;100.00;98479.13;4936714;29;20450;-83
2023/08/03 04:26:09;;;;;;;2.35;0.52;;;;;;;15.42;100.00;98488.41;4931867;28;20046;-85
2023/08/03 04:28:35;;;;;;;0.65;0.50;;;;;;;15.47;100.00;98492.44;4935839;28;20039;-85
2023/08/03 04:31:02;;;;;;;0.20;0.20;;;;;;;15.50;100.00;98487.00;4947791;28;20039;-84
2023/08/03 04:33:29;;;;;;;1.10;0.40;;;;;;;15.45;100.00;98488.22;4919370;29;20066;-83
2023/08/03 04:35:55;;;;;;;1.50;0.45;;;;;;;15.47;100.00;98491.59;4950621;28;20045;-84
2023/08/03 04:38:22;;;;;;;0.60;0.40;;;;;;;15.48;100.00;98488.03;4932021;28;20043;-86
2023/08/03 04:40:48;;;;;;;0.80;0.40;;;;;;;15.46;100.00;98505.72;4936011;28;20051;-87
2023/08/03 04:43:15;;;;;;;1.15;0.55;;;;;;;15.39;100.00;98507.91;4919363;28;20055;-85
2023/08/03 04:45:41;;;;;;;0.38;0.38;;;;;;;15.35;100.00;98516.97;4952609;28;20051;-83
2023/08/03 04:48:08;;;;;;;0.60;0.60;;;;;;;15.33;100.00;98511.78;4929147;28;20048;-89
2023/08/03 04:50:35;;;;;;;0.30;0.30;;;;;;;15.33;100.00;98519.69;4939147;28;20047;-84
2023/08/03 04:53:01;;;;;;;1.27;0.65;;;;;;;15.33;100.00;98527.59;4909496;28;20048;-94
2023/08/03 04:55:28;;;;;;;3.92;0.68;;;;;;;15.22;100.00;98511.59;4933002;29;20044;-84
2023/08/03 04:57:54;;;;;;;1.45;0.50;;;;;;;15.14;100.00;98503.34;4932104;28;20122;-83
2023/08/03 05:00:21;;;;;;;0.45;0.45;;;;;;;15.11;100.00;98512.28;4948622;28;20058;-82
2023/08/03 05:02:47;;;;;;;1.25;0.75;;;;;;;15.10;100.00;98528.19;4948262;28;20054;-83
2023/08/03 05:05:14;;;;;;;0.60;0.52;;;;;;;15.14;100.00;98519.16;4944152;28;20047;-88
2023/08/03 05:07:40;;;;;;;0.93;0.75;;;;;;;15.15;100.00;98520.84;4934877;28;20079;-88
2023/08/03 05:10:07;;;;;;;1.40;0.57;;;;;;;15.21;100.00;98528.34;4934575;28;20091;-85
2023/08/03 05:12:34;;;;;;;0.88;0.70;;;;;;;15.27;100.00;98535.06;4934107;28;20340;-85
2023/08/03 05:15:00;;;;;;;0.75;0.75;;;;;;;15.35;100.00;98532.78;4932467;29;20871;-84
2023/08/03 05:17:27;;;;;;;1.90;1.02;;;;;;;15.43;100.00;98524.38;4930898;29;20106;-85
2023/08/03 05:19:53;;;;;;;2.83;0.85;;;;;;;15.49;100.00;98538.03;4918045;28;20059;-83
2023/08/03 05:22:20;;;;;;;1.95;0.40;;;;;;;15.60;100.00;98534.69;4919681;28;20047;-86
2023/08/03 05:24:46;;;;;;;2.15;0.55;;;;;;;15.63;100.00;98547.72;4920356;28;20044;-83
2023/08/03 05:27:13;;;;;;;2.03;0.77;;;;;;;15.59;100.00;98548.00;4934328;28;20129;-87
2023/08/03 05:29:43;;;;;;;2.10;1.02;;;;;;;15.58;100.00;98554.19;4920848;28;20058;-83
2023/08/03 05:32:11;;;;;;;1.13;0.60;;;;;;;15.61;100.00;98557.50;4922416;29;20050;-84
2023/08/03 05:34:38;;;;;;;0.82;0.50;;;;;;;15.68;100.00;98563.22;4933526;29;20046;-83
2023/08/03 05:37:05;;;;;;;1.80;0.50;;;;;;;15.71;100.00;98558.59;4915739;28;20496;-82
2023/08/03 05:39:33;;;;;;;3.03;0.40;;;;;;;15.71;100.00;98574.44;4955772;28;20051;-83
2023/08/03 05:42:01;;;;;;;2.70;0.80;;;;;;;15.73;100.00;98579.59;4931726;29;20039;-83
2023/08/03 05:44:28;;;;;;;1.45;0.60;;;;;;;15.78;100.00;98574.06;4931550;28;20698;-83
2023/08/03 05:46:55;;;;;;;0.90;0.60;;;;;;;15.76;100.00;98565.38;4916990;29;20052;-83
2023/08/03 05:49:28;;;;;;;3.20;0.75;;;;;;;15.79;100.00;98573.94;4938908;28;20070;-83
2023/08/03 05:51:54;;;;;;;3.15;0.63;;;;;;;15.83;100.00;98580.75;4931817;28;20507;-82
2023/08/03 05:54:21;;;;;;;3.22;0.70;;;;;;;15.85;100.00;98588.56;4931125;28;20115;-84
2023/08/03 05:56:48;;;;;;;1.27;0.93;;;;;;;15.88;100.00;98586.59;4932520;28;20039;-86
2023/08/03 05:59:24;;;;;;;6.10;1.15;;;;;;;15.82;100.00;98586.13;4919021;28;20078;-82
2023/08/03 06:01:52;;;;;;;4.07;1.30;;;;;;;15.49;100.00;98592.56;4920614;28;20055;-82
2023/08/03 06:04:20;;;;;;;5.75;1.40;;;;;;;15.27;100.00;98593.88;4955692;28;20052;-83
2023/08/03 06:06:48;;;;;;;1.77;1.65;;;;;;;15.19;100.00;98597.00;4939038;28;20047;-83
2023/08/03 06:09:18;;;;;;;1.45;1.33;;;;;;;15.17;100.00;98603.28;4932788;28;20043;-85
2023/08/03 06:11:44;;;;;;;1.45;1.35;;;;;;;15.16;100.00;98612.13;4934213;28;20142;-83
2023/08/03 06:14:13;;;;;;;1.85;0.90;;;;;;;15.20;100.00;98611.00;4926289;28;20112;-82
2023/08/03 06:16:43;;;;;;;2.17;1.27;;;;;;;15.25;100.00;98601.03;4945732;28;20047;-82
2023/08/03 06:19:11;;;;;;;2.35;1.15;;;;;;;15.26;100.00;98607.16;4939656;29;20066;-82
2023/08/03 06:21:38;;;;;;;2.25;1.50;;;;;;;15.30;100.00;98613.94;4950279;28;20047;-83
2023/08/03 06:24:05;;;;;;;3.65;1.20;;;;;;;15.34;100.00;98613.66;4940674;28;20479;-94
2023/08/03 06:26:34;;;;;;;1.33;0.80;;;;;;;15.38;100.00;98616.94;4912183;28;20067;-85
2023/08/03 06:29:02;;;;;;;4.10;1.05;;;;;;;15.42;100.00;98607.06;4909387;29;20047;-85
2023/08/03 06:31:37;;;;;;;3.83;0.70;;;;;;;15.46;100.00;98614.69;4923282;28;20080;-83
2023/08/03 06:34:11;;;;;;;5.78;1.60;;;;;;;15.61;100.00;98623.44;4933258;29;20049;-83
2023/08/03 06:36:41;;;;;;;5.40;0.95;;;;;;;15.70;100.00;98614.09;4936591;28;20086;-83
2023/08/03 06:39:08;;;;;;;4.28;0.88;;;;;;;15.81;100.00;98619.59;4934927;28;20064;-83
2023/08/03 06:41:35;;;;;;;4.30;1.33;;;;;;;15.94;100.00;98624.06;4916820;28;20047;-82
2023/08/03 06:44:02;;;;;;;0.68;0.60;;;;;;;16.03;100.00;98636.69;4931963;29;20052;-86
2023/08/03 06:46:29;;;;;;;1.92;0.85;;;;;;;16.07;100.00;98642.63;4920715;29;20047;-83
2023/08/03 06:48:55;;;;;;;3.08;0.80;;;;;;;16.13;100.00;98644.88;4916450;29;20571;-83
2023/08/03 06:51:22;;;;;;;0.98;0.70;;;;;;;16.20;100.00;98657.56;4932724;28;20045;-91
2023/08/03 06:53:50;;;;;;;5.35;1.98;;;;;;;16.24;100.00;98649.44;4933691;28;20039;-85
2023/08/03 06:56:17;;;;;;;2.90;0.95;;;;;;;16.27;100.00;98651.88;4937295;29;20043;-81
2023/08/03 06:58:47;;;;;;;2.20;1.15;;;;;;;16.36;100.00;98653.91;4955507;28;20079;-80
2023/08/03 07:01:13;;;;;;;1.30;0.73;;;;;;;16.47;100.00;98661.16;4936625;28;20047;-83
2023/08/03 07:03:40;;;;;;;0.82;0.43;;;;;;;16.58;100.00;98666.56;4939106;28;20047;-83
2023/08/03 07:06:07;;;;;;;1.08;0.70;;;;;;;16.73;100.00;98658.59;4924161;28;20588;-86
2023/08/03 07:08:33;;;;;;;4.20;0.63;;;;;;;16.98;100.00;98666.59;4933324;28;20040;-83
2023/08/03 07:11:00;;;;;;;1.70;0.60;;;;;;;17.20;100.00;98675.72;4935110;29;20048;-84
2023/08/03 07:13:26;;;;;;;4.57;0.52;;;;;;;17.18;100.00;98661.75;4940061;28;20047;-82
2023/08/03 07:15:56;;;;;;;1.70;0.50;;;;;;;17.19;100.00;98669.59;4962100;28;20040;-83
2023/08/03 07:18:25;;;;;;;3.50;0.73;;;;;;;17.15;100.00;98677.84;4941338;28;20094;-87
2023/08/03 07:20:51;;;;;;;3.03;0.63;;;;;;;17.11;100.00;98673.72;4942172;29;20047;-83
2023/08/03 07:23:18;;;;;;;0.40;0.40;;;;;;;17.07;100.00;98682.81;4932787;28;20063;-88
2023/08/03 07:25:44;;;;;;;1.30;0.38;;;;;;;17.04;100.00;98673.28;4931248;28;20067;-84
2023/08/03 07:28:11;;;;;;;0.30;0.30;;;;;;;17.06;100.00;98675.81;4953590;28;20062;-82
2023/08/03 07:30:38;;;;;;;1.48;0.50;;;;;;;17.16;100.00;98677.72;4941753;28;20047;-82
2023/08/03 07:33:04;;;;;;;0.93;0.30;;;;;;;17.15;100.00;98686.59;4962199;28;20051;-81
2023/08/03 07:35:31;;;;;;;1.13;0.28;;;;;;;17.16;100.00;98677.72;4946660;29;20495;-81
2023/08/03 07:37:58;;;;;;;1.00;0.63;;;;;;;17.24;100.00;98684.31;4924314;29;20088;-82
2023/08/03 07:40:25;;;;;;;3.72;0.70;;;;;;;17.25;100.00;98694.78;4938448;28;20079;-82
2023/08/03 07:42:52;;;;;;;1.30;0.68;;;;;;;17.34;100.00;98702.06;4952768;29;20039;-81
2023/08/03 07:45:19;;;;;;;0.80;0.45;;;;;;;17.52;100.00;98710.56;4945630;28;20047;-83
2023/08/03 07:47:45;;;;;;;0.73;0.43;;;;;;;17.70;100.00;98715.50;4938928;29;20130;-83
2023/08/03 07:50:12;;;;;;;0.30;0.30;;;;;;;17.89;100.00;98711.59;4936618;28;20357;-88
2023/08/03 07:52:39;;;;;;;2.88;0.70;;;;;;;17.97;100.00;98715.41;4935109;28;20042;-83
2023/08/03 07:55:06;;;;;;;3.40;0.40;;;;;;;17.85;100.00;98709.13;4917906;29;20054;-83
2023/08/03 07:57:33;;;;;;;0.98;0.30;;;;;;;17.39;100.00;98709.72;4939315;29;20078;-84
2023/08/03 08:00:00;;;;;;;1.80;0.55;;;;;;;16.96;100.00;98700.22;4930302;29;20039;-83
2023/08/03 08:02:26;;;;;;;1.35;0.82;;;;;;;16.62;100.00;98714.78;4932697;28;20660;-83
2023/08/03 08:04:53;;;;;;;0.68;0.63;;;;;;;16.48;100.00;98716.53;4937797;28;20074;-85
2023/08/03 08:07:21;;;;;;;0.60;0.57;;;;;;;16.44;100.00;98722.09;4941232;28;20046;-87
2023/08/03 08:09:54;;;;;;;0.65;0.30;;;;;;;16.57;100.00;98719.50;4944737;28;20051;-83
2023/08/03 08:12:20;;;;;;;2.20;0.55;;;;;;;16.73;100.00;98730.78;4915682;29;20048;-82
2023/08/03 08:14:47;;;;;;;2.47;0.40;;;;;;;16.85;100.00;98734.41;4940689;29;20102;-81
2023/08/03 08:17:14;;;;;;;1.10;0.60;;;;;;;16.94;100.00;98731.19;4940690;28;20051;-82
2023/08/03 08:19:42;;;;;;;0.75;0.73;;;;;;;16.98;100.00;98735.31;4938128;28;20039;-85
2023/08/03 08:22:13;;;;;;;2.35;0.82;;;;;;;17.03;100.00;98737.66;4937910;29;20043;-93
2023/08/03 08:24:40;;;;;;;1.85;0.38;;;;;;;17.09;100.00;98754.91;4932156;28;20112;-83
2023/08/03 08:27:06;;;;;;;0.85;0.28;;;;;;;17.34;100.00;98747.03;4953991;28;20058;-83
2023/08/03 08:29:33;;;;;;;1.33;0.60;;;;;;;17.71;100.00;98746.31;4956798;28;20491;-85
2023/08/03 08:32:00;;;;;;;0.25;0.25;;;;;;;18.56;100.00;98760.72;4935777;29;20119;-83
2023/08/03 08:34:27;;;;;;;1.30;0.20;;;;;;;19.20;100.00;98759.59;4924897;29;20631;-83
2023/08/03 08:36:55;;;;;;;0.50;0.13;;;;;;;19.43;98.38;98756.06;4942001;28;20045;-83
2023/08/03 08:39:24;;;;;;;0.38;0.20;;;;;;;19.31;99.18;98747.22;4929899;28;20086;-82
2023/08/03 08:41:52;;;;;;;1.05;0.50;;;;;;;19.03;100.00;98767.00;4921642;28;20099;-84
2023/08/03 08:44:18;;;;;;;0.20;0.20;;;;;;;18.68;100.00;98763.31;4943185;28;20482;-83
2023/08/03 08:46:45;;;;;;;0.88;0.30;;;;;;;18.47;100.00;98762.22;4940160;29;20039;-83
2023/08/03 08:49:12;;;;;;;1.60;0.30;;;;;;;18.30;100.00;98763.44;4950760;28;20047;-82
2023/08/03 08:51:41;;;;;;;0.10;0.10;;;;;;;18.41;100.00;98782.06;4945144;28;20487;-83
2023/08/03 08:54:09;;;;;;;1.23;0.35;;;;;;;18.45;100.00;98782.69;4941707;29;20039;-83
2023/08/03 08:56:36;;;;;;;0.45;0.22;;;;;;;18.37;100.00;98783.25;4943857;29;20039;-84
2023/08/03 08:59:03;;;;;;;0.45;0.25;;;;;;;18.27;100.00;98784.84;4937329;29;20058;-83
2023/08/03 09:01:49;;;;;;;1.02;0.30;;;;;;;18.05;100.00;98798.75;4955348;28;20488;-83
2023/08/03 09:04:30;;;;;;;0.63;0.20;;;;;;;17.96;100.00;98795.78;4953322;28;20107;-82
2023/08/03 09:06:57;;;;;;;0.30;0.30;;;;;;;18.04;100.00;98794.41;4933109;28;20474;-83
2023/08/03 09:09:37;;;;;;;3.40;0.20;;;;;;;18.24;100.00;98803.59;4942039;29;20384;-81
2023/08/03 09:12:03;;;;;;;0.10;0.10;;;;;;;18.27;100.00;98809.50;4937878;29;20047;-83
2023/08/03 09:14:31;;;;;;;0.10;0.10;;;;;;;18.28;100.00;98820.97;4922185;28;20341;-82
2023/08/03 09:17:19;;;;;;;0.15;0.15;;;;;;;18.28;100.00;98821.81;4937126;29;20058;-84
2023/08/03 09:19:49;;;;;;;0.85;0.25;;;;;;;18.12;100.00;98811.47;4925531;28;20044;-83
2023/08/03 09:22:28;;;;;;;0.30;0.30;;;;;;;17.62;100.00;98823.69;4944922;28;20494;-82
2023/08/03 09:25:10;;;;;;;0.10;0.10;;;;;;;17.25;100.00;98834.91;4939073;29;20048;-81
2023/08/03 09:27:38;;;;;;;1.50;0.43;;;;;;;16.83;100.00;98839.34;4944636;28;20226;-85
2023/08/03 09:30:09;;;;;;;1.13;0.20;;;;;;;16.59;100.00;98836.50;4936487;29;20031;-82
2023/08/03 09:32:36;;;;;;;0.65;0.30;;;;;;;16.59;100.00;98841.78;4932625;29;20483;-84
2023/08/03 09:35:03;;;;;;;0.22;0.22;;;;;;;16.76;100.00;98838.06;4914287;29;20047;-82
2023/08/03 09:37:35;;;;;;;0.75;0.25;;;;;;;16.91;100.00;98850.34;4948371;28;20051;-88
2023/08/03 09:40:03;;;;;;;0.20;0.20;;;;;;;16.80;100.00;98860.69;4932110;28;20123;-84
2023/08/03 09:42:31;;;;;;;0.70;0.20;;;;;;;16.68;100.00;98851.75;4935897;28;20051;-83
2023/08/03 09:45:01;;;;;;;0.20;0.20;;;;;;;16.63;100.00;98859.13;4939599;28;20045;-83
2023/08/03 09:47:28;;;;;;;1.55;0.20;;;;;;;16.75;100.00;98860.13;4934278;28;20039;-84
2023/08/03 09:49:57;;;;;;;1.58;0.22;;;;;;;17.19;100.00;98852.03;4933684;29;20138;-82
2023/08/03 09:52:28;;;;;;;0.17;0.10;;;;;;;17.88;100.00;98855.47;4929541;29;20099;-81
2023/08/03 09:55:08;;;;;;;0.13;0.13;;;;;;;18.44;100.00;98857.81;4938755;28;20075;-81
2023/08/03 09:57:44;;;;;;;0.17;0.17;;;;;;;18.65;100.00;98866.06;4941067;28;20069;-81
2023/08/03 10:00:13;;;;;;;0.43;0.20;;;;;;;18.65;100.00;98874.84;4923016;29;20039;-81
2023/08/03 10:03:07;;;;;;;0.20;0.20;;;;;;;18.38;100.00;98882.09;4935157;29;20039;-83
2023/08/03 10:05:40;;;;;;;0.15;0.15;;;;;;;18.21;100.00;98884.09;4931340;28;20122;-84
2023/08/03 10:08:18;;;;;;;2.03;0.15;;;;;;;18.12;100.00;98884.72;4942204;28;20051;-85
2023/08/03 10:10:49;;;;;;;0.73;0.10;;;;;;;18.24;100.00;98883.03;4929433;28;20043;-83
2023/08/03 10:13:16;;;;;;;0.73;0.10;;;;;;;18.21;100.00;98897.34;4913475;28;20047;-83
2023/08/03 10:15:43;;;;;;;0.30;0.30;;;;;;;18.28;100.00;98893.31;4933227;28;20050;-83
2023/08/03 10:18:10;;;;;;;0.50;0.20;;;;;;;18.61;100.00;98881.31;4956151;28;20040;-87
2023/08/03 10:20:37;;;;;;;1.10;0.20;;;;;;;18.82;100.00;98886.88;4934879;28;20122;-83
2023/08/03 10:23:19;;;;;;;0.35;0.22;;;;;;;19.00;100.00;98886.56;4940258;28;20049;-82
2023/08/03 10:26:01;;;;;;;0.30;0.30;;;;;;;19.06;100.00;98895.88;4937842;28;20526;-81
2023/08/03 10:28:40;;;;;;;0.82;0.30;;;;;;;18.93;100.00;98896.78;4925918;29;20044;-83
2023/08/03 10:31:18;;;;;;;0.73;0.40;;;;;;;19.19;100.00;98894.03;4943982;28;20098;-83
2023/08/03 10:33:48;;;;;;;1.20;0.32;;;;;;;19.65;100.00;98903.06;4941074;28;20129;-85
2023/08/03 10:36:30;;;;;;;0.47;0.47;;;;;;;20.03;99.69;98904.66;4952869;28;20051;-85
2023/08/03 10:39:09;;;;;;;0.40;0.40;;;;;;;20.03;96.86;98887.88;4941913;28;20047;-84
2023/08/03 10:41:45;;;;;;;0.75;0.43;;;;;;;19.53;99.57;98894.22;4934804;28;20051;-83
2023/08/03 10:44:12;;;;;;;0.38;0.32;;;;;;;19.14;100.00;98912.94;4937990;28;20488;-85
2023/08/03 10:46:50;;;;;;;1.38;0.20;;;;;;;19.07;100.00;98916.97;4948235;28;20440;-84
2023/08/03 10:49:20;;;;;;;0.22;0.20;;;;;;;18.89;100.00;98931.53;4913362;28;20138;-86
2023/08/03 10:51:50;;;;;;;0.17;0.13;;;;;;;18.72;100.00;98927.41;4946219;28;20039;-85
2023/08/03 10:54:29;;;;;;;0.32;0.30;;;;;;;18.49;100.00;98927.22;4924234;28;20051;-84
2023/08/03 10:57:14;;;;;;;1.65;0.20;;;;;;;18.43;100.00;98931.13;4922380;28;20130;-86
2023/08/03 10:59:43;;;;;;;0.73;0.30;;;;;;;18.40;100.00;98938.47;4931079;28;20058;-83
2023/08/03 11:02:35;;;;;;;0.30;0.30;;;;;;;18.65;100.00;98949.03;4932425;29;20043;-83
2023/08/03 11:05:11;;;;;;;0.82;0.40;;;;;;;18.97;100.00;98951.28;4924576;29;20054;-83
2023/08/03 11:07:56;;;;;;;0.20;0.20;;;;;;;18.91;100.00;98949.06;4924988;29;20051;-83
2023/08/03 11:10:24;;;;;;;0.10;0.10;;;;;;;18.67;100.00;98964.88;4929797;29;20055;-85
2023/08/03 11:12:55;;;;;;;0.40;0.20;;;;;;;18.59;100.00;98961.88;4931053;29;20044;-82
2023/08/03 11:15:24;;;;;;;0.17;0.17;;;;;;;18.52;100.00;98972.94;4934236;28;20079;-83
2023/08/03 11:17:51;;;;;;;0.10;0.10;;;;;;;18.52;100.00;98972.06;4935615;28;20075;-85
2023/08/03 11:20:19;;;;;;;0.75;0.20;;;;;;;18.65;100.00;98975.53;4936003;28;20043;-83
2023/08/03 11:22:58;;;;;;;0.50;0.50;;;;;;;18.65;100.00;98966.75;4936179;28;20410;-84
2023/08/03 11:25:25;;;;;;;0.55;0.20;;;;;;;18.60;100.00;98984.78;4919469;28;20052;-83
2023/08/03 11:27:54;;;;;;;1.00;0.57;;;;;;;18.50;100.00;98981.94;4937166;28;20134;-87
2023/08/03 11:30:25;;;;;;;0.63;0.63;;;;;;;18.39;100.00;98964.09;4915987;28;20048;-84